sensor_id;sensor_type;location;lat;lon;timestamp;P1;durP1;ratioP1;P2;durP2;ratioP2
59161;SDS011;44942;48.936;8.260;2023-03-20T00:03:55;2.03;;;1.60;;
59161;SDS011;44942;48.936;8.260;2023-03-20T00:08:56;1.50;;;1.33;;
59161;SDS011;44942;48.936;8.260;2023-03-20T00:14:12;1.20;;;1.10;;
59161;SDS011;44942;48.936;8.260;2023-03-20T00:24:23;1.35;;;1.25;;
59161;SDS011;44942;48.936;8.260;2023-03-20T00:29:25;2.10;;;1.50;;
59161;SDS011;44942;48.936;8.260;2023-03-20T00:34:29;1.40;;;1.20;;
59161;SDS011;44942;48.936;8.260;2023-03-20T00:49:36;1.52;;;1.35;;
59161;SDS011;44942;48.936;8.260;2023-03-20T00:54:40;1.83;;;1.48;;
59161;SDS011;44942;48.936;8.260;2023-03-20T00:59:41;1.43;;;1.10;;
59161;SDS011;44942;48.936;8.260;2023-03-20T01:05:04;1.25;;;1.10;;
59161;SDS011;44942;48.936;8.260;2023-03-20T01:10:06;1.20;;;1.10;;
59161;SDS011;44942;48.936;8.260;2023-03-20T01:15:19;1.55;;;1.30;;
59161;SDS011;44942;48.936;8.260;2023-03-20T01:20:23;1.33;;;1.00;;
59161;SDS011;44942;48.936;8.260;2023-03-20T01:25:28;6.88;;;1.40;;
59161;SDS011;44942;48.936;8.260;2023-03-20T01:30:30;1.20;;;1.10;;
59161;SDS011;44942;48.936;8.260;2023-03-20T01:35:31;1.08;;;0.98;;
59161;SDS011;44942;48.936;8.260;2023-03-20T01:40:33;1.10;;;1.00;;
59161;SDS011;44942;48.936;8.260;2023-03-20T01:45:39;1.20;;;1.10;;
59161;SDS011;44942;48.936;8.260;2023-03-20T01:50:52;1.27;;;1.10;;
59161;SDS011;44942;48.936;8.260;2023-03-20T01:55:53;1.13;;;1.03;;
59161;SDS011;44942;48.936;8.260;2023-03-20T02:00:56;1.52;;;1.20;;
59161;SDS011;44942;48.936;8.260;2023-03-20T02:10:58;1.20;;;1.10;;
59161;SDS011;44942;48.936;8.260;2023-03-20T02:16:02;1.17;;;1.08;;
59161;SDS011;44942;48.936;8.260;2023-03-20T02:21:27;1.10;;;1.00;;
59161;SDS011;44942;48.936;8.260;2023-03-20T02:42:34;0.90;;;0.80;;
59161;SDS011;44942;48.936;8.260;2023-03-20T02:47:57;1.17;;;0.90;;
59161;SDS011;44942;48.936;8.260;2023-03-20T02:58:23;1.20;;;1.10;;
59161;SDS011;44942;48.936;8.260;2023-03-20T03:09:01;0.93;;;0.85;;
59161;SDS011;44942;48.936;8.260;2023-03-20T03:14:05;0.80;;;0.70;;
59161;SDS011;44942;48.936;8.260;2023-03-20T03:19:10;1.00;;;0.90;;
59161;SDS011;44942;48.936;8.260;2023-03-20T03:24:22;0.80;;;0.73;;
59161;SDS011;44942;48.936;8.260;2023-03-20T03:29:33;0.70;;;0.70;;
59161;SDS011;44942;48.936;8.260;2023-03-20T03:34:38;0.88;;;0.80;;
59161;SDS011;44942;48.936;8.260;2023-03-20T03:39:40;1.10;;;0.90;;
59161;SDS011;44942;48.936;8.260;2023-03-20T03:44:54;0.80;;;0.80;;
59161;SDS011;44942;48.936;8.260;2023-03-20T03:50:19;1.25;;;0.80;;
59161;SDS011;44942;48.936;8.260;2023-03-20T04:00:29;1.90;;;1.65;;
59161;SDS011;44942;48.936;8.260;2023-03-20T04:05:32;1.95;;;1.75;;
59161;SDS011;44942;48.936;8.260;2023-03-20T04:10:36;1.90;;;1.80;;
59161;SDS011;44942;48.936;8.260;2023-03-20T04:15:37;1.60;;;1.50;;
59161;SDS011;44942;48.936;8.260;2023-03-20T04:20:38;1.57;;;1.47;;
59161;SDS011;44942;48.936;8.260;2023-03-20T04:25:38;1.30;;;1.20;;
59161;SDS011;44942;48.936;8.260;2023-03-20T04:30:39;1.27;;;1.17;;
59161;SDS011;44942;48.936;8.260;2023-03-20T04:35:39;1.40;;;1.30;;
59161;SDS011;44942;48.936;8.260;2023-03-20T04:40:40;1.30;;;1.10;;
59161;SDS011;44942;48.936;8.260;2023-03-20T04:45:42;1.10;;;1.00;;
59161;SDS011;44942;48.936;8.260;2023-03-20T04:50:43;1.23;;;1.10;;
59161;SDS011;44942;48.936;8.260;2023-03-20T04:55:47;1.00;;;0.90;;
59161;SDS011;44942;48.936;8.260;2023-03-20T05:05:49;1.00;;;0.90;;
59161;SDS011;44942;48.936;8.260;2023-03-20T05:10:49;1.00;;;0.90;;
59161;SDS011;44942;48.936;8.260;2023-03-20T05:15:50;0.80;;;0.80;;
59161;SDS011;44942;48.936;8.260;2023-03-20T05:20:51;1.37;;;1.00;;
59161;SDS011;44942;48.936;8.260;2023-03-20T05:25:51;1.00;;;0.90;;
59161;SDS011;44942;48.936;8.260;2023-03-20T05:30:52;1.10;;;0.90;;
59161;SDS011;44942;48.936;8.260;2023-03-20T05:35:52;1.23;;;0.80;;
59161;SDS011;44942;48.936;8.260;2023-03-20T05:40:57;0.80;;;0.80;;
59161;SDS011;44942;48.936;8.260;2023-03-20T05:45:58;1.17;;;0.90;;
59161;SDS011;44942;48.936;8.260;2023-03-20T05:50:59;4.90;;;1.17;;
59161;SDS011;44942;48.936;8.260;2023-03-20T05:55:59;1.07;;;0.97;;
59161;SDS011;44942;48.936;8.260;2023-03-20T06:01:00;1.67;;;1.00;;
59161;SDS011;44942;48.936;8.260;2023-03-20T06:06:01;2.03;;;0.90;;
59161;SDS011;44942;48.936;8.260;2023-03-20T06:16:03;3.30;;;0.90;;
59161;SDS011;44942;48.936;8.260;2023-03-20T06:21:04;0.80;;;0.80;;
59161;SDS011;44942;48.936;8.260;2023-03-20T06:26:05;1.02;;;0.77;;
59161;SDS011;44942;48.936;8.260;2023-03-20T06:31:05;1.00;;;0.85;;
59161;SDS011;44942;48.936;8.260;2023-03-20T06:36:08;1.00;;;0.90;;
59161;SDS011;44942;48.936;8.260;2023-03-20T06:41:08;6.85;;;1.00;;
59161;SDS011;44942;48.936;8.260;2023-03-20T06:46:09;4.33;;;1.00;;
59161;SDS011;44942;48.936;8.260;2023-03-20T06:51:10;5.28;;;4.60;;
59161;SDS011;44942;48.936;8.260;2023-03-20T06:56:10;10.57;;;8.97;;
59161;SDS011;44942;48.936;8.260;2023-03-20T07:01:11;11.97;;;7.57;;
59161;SDS011;44942;48.936;8.260;2023-03-20T07:06:15;8.23;;;6.28;;
59161;SDS011;44942;48.936;8.260;2023-03-20T07:11:17;7.18;;;6.47;;
59161;SDS011;44942;48.936;8.260;2023-03-20T07:16:18;5.63;;;5.13;;
59161;SDS011;44942;48.936;8.260;2023-03-20T07:21:19;5.23;;;4.70;;
59161;SDS011;44942;48.936;8.260;2023-03-20T07:26:21;5.03;;;4.53;;
59161;SDS011;44942;48.936;8.260;2023-03-20T07:31:23;6.30;;;4.13;;
59161;SDS011;44942;48.936;8.260;2023-03-20T07:36:25;4.18;;;3.78;;
59161;SDS011;44942;48.936;8.260;2023-03-20T07:41:25;4.40;;;3.33;;
59161;SDS011;44942;48.936;8.260;2023-03-20T07:46:26;4.93;;;3.70;;
59161;SDS011;44942;48.936;8.260;2023-03-20T07:51:26;3.37;;;2.93;;
59161;SDS011;44942;48.936;8.260;2023-03-20T07:56:27;2.80;;;2.50;;
59161;SDS011;44942;48.936;8.260;2023-03-20T08:01:28;3.13;;;2.60;;
59161;SDS011;44942;48.936;8.260;2023-03-20T08:06:28;7.43;;;2.87;;
59161;SDS011;44942;48.936;8.260;2023-03-20T08:11:29;5.50;;;2.85;;
59161;SDS011;44942;48.936;8.260;2023-03-20T08:16:30;4.57;;;2.47;;
59161;SDS011;44942;48.936;8.260;2023-03-20T08:21:31;4.60;;;2.50;;
59161;SDS011;44942;48.936;8.260;2023-03-20T08:26:32;3.47;;;2.30;;
59161;SDS011;44942;48.936;8.260;2023-03-20T08:31:32;2.80;;;2.33;;
59161;SDS011;44942;48.936;8.260;2023-03-20T08:36:33;4.50;;;2.50;;
59161;SDS011;44942;48.936;8.260;2023-03-20T08:41:35;5.50;;;2.40;;
59161;SDS011;44942;48.936;8.260;2023-03-20T08:46:37;3.63;;;2.33;;
59161;SDS011;44942;48.936;8.260;2023-03-20T08:51:38;2.83;;;2.30;;
59161;SDS011;44942;48.936;8.260;2023-03-20T08:56:39;2.13;;;1.93;;
59161;SDS011;44942;48.936;8.260;2023-03-20T09:01:40;4.30;;;2.40;;
59161;SDS011;44942;48.936;8.260;2023-03-20T09:06:40;2.67;;;1.93;;
59161;SDS011;44942;48.936;8.260;2023-03-20T09:11:43;2.70;;;2.00;;
59161;SDS011;44942;48.936;8.260;2023-03-20T09:16:44;2.50;;;1.92;;
59161;SDS011;44942;48.936;8.260;2023-03-20T09:21:46;2.47;;;1.90;;
59161;SDS011;44942;48.936;8.260;2023-03-20T09:26:46;2.23;;;2.00;;
59161;SDS011;44942;48.936;8.260;2023-03-20T09:31:47;2.58;;;1.92;;
59161;SDS011;44942;48.936;8.260;2023-03-20T09:36:47;2.80;;;1.80;;
59161;SDS011;44942;48.936;8.260;2023-03-20T09:41:48;3.47;;;2.05;;
59161;SDS011;44942;48.936;8.260;2023-03-20T09:51:54;2.72;;;1.98;;
59161;SDS011;44942;48.936;8.260;2023-03-20T09:56:59;2.92;;;2.00;;
59161;SDS011;44942;48.936;8.260;2023-03-20T10:07:08;3.67;;;1.70;;
59161;SDS011;44942;48.936;8.260;2023-03-20T10:17:17;2.30;;;1.73;;
59161;SDS011;44942;48.936;8.260;2023-03-20T10:22:45;1.98;;;1.75;;
59161;SDS011;44942;48.936;8.260;2023-03-20T10:44:05;2.38;;;1.60;;
59161;SDS011;44942;48.936;8.260;2023-03-20T10:54:23;2.15;;;1.67;;
59161;SDS011;44942;48.936;8.260;2023-03-20T10:59:36;4.20;;;1.48;;
59161;SDS011;44942;48.936;8.260;2023-03-20T11:04:41;4.03;;;1.92;;
59161;SDS011;44942;48.936;8.260;2023-03-20T11:09:42;1.92;;;1.58;;
59161;SDS011;44942;48.936;8.260;2023-03-20T11:14:42;5.30;;;1.70;;
59161;SDS011;44942;48.936;8.260;2023-03-20T11:19:43;2.70;;;1.60;;
59161;SDS011;44942;48.936;8.260;2023-03-20T11:24:44;4.73;;;1.90;;
59161;SDS011;44942;48.936;8.260;2023-03-20T11:29:49;2.30;;;1.42;;
59161;SDS011;44942;48.936;8.260;2023-03-20T11:34:51;3.50;;;1.65;;
59161;SDS011;44942;48.936;8.260;2023-03-20T11:39:57;2.83;;;1.40;;
59161;SDS011;44942;48.936;8.260;2023-03-20T11:45:16;1.63;;;1.50;;
59161;SDS011;44942;48.936;8.260;2023-03-20T11:50:36;1.50;;;1.40;;
59161;SDS011;44942;48.936;8.260;2023-03-20T11:55:41;3.17;;;1.30;;
59161;SDS011;44942;48.936;8.260;2023-03-20T12:00:57;1.65;;;1.30;;
59161;SDS011;44942;48.936;8.260;2023-03-20T12:06:00;3.63;;;1.25;;
59161;SDS011;44942;48.936;8.260;2023-03-20T12:11:05;1.92;;;1.23;;
59161;SDS011;44942;48.936;8.260;2023-03-20T12:16:19;3.22;;;1.33;;
59161;SDS011;44942;48.936;8.260;2023-03-20T12:27:14;1.42;;;1.33;;
59161;SDS011;44942;48.936;8.260;2023-03-20T12:32:25;1.77;;;1.45;;
59161;SDS011;44942;48.936;8.260;2023-03-20T12:38:07;1.30;;;1.20;;
59161;SDS011;44942;48.936;8.260;2023-03-20T12:43:33;1.40;;;1.15;;
59161;SDS011;44942;48.936;8.260;2023-03-20T13:00:10;2.47;;;1.60;;
59161;SDS011;44942;48.936;8.260;2023-03-20T13:05:45;2.55;;;1.20;;
59161;SDS011;44942;48.936;8.260;2023-03-20T13:11:16;2.38;;;1.13;;
59161;SDS011;44942;48.936;8.260;2023-03-20T13:27:25;1.60;;;1.10;;
59161;SDS011;44942;48.936;8.260;2023-03-20T13:37:57;1.83;;;1.10;;
59161;SDS011;44942;48.936;8.260;2023-03-20T13:43:23;3.15;;;1.20;;
59161;SDS011;44942;48.936;8.260;2023-03-20T13:48:28;1.80;;;1.00;;
59161;SDS011;44942;48.936;8.260;2023-03-20T14:04:03;1.52;;;1.10;;
59161;SDS011;44942;48.936;8.260;2023-03-20T14:14:31;1.35;;;1.20;;
59161;SDS011;44942;48.936;8.260;2023-03-20T14:19:51;0.80;;;0.80;;
59161;SDS011;44942;48.936;8.260;2023-03-20T14:24:56;1.10;;;0.88;;
59161;SDS011;44942;48.936;8.260;2023-03-20T14:35:29;1.30;;;1.20;;
59161;SDS011;44942;48.936;8.260;2023-03-20T14:46:19;1.10;;;1.00;;
59161;SDS011;44942;48.936;8.260;2023-03-20T14:51:59;0.83;;;0.70;;
59161;SDS011;44942;48.936;8.260;2023-03-20T14:57:06;1.10;;;0.93;;
59161;SDS011;44942;48.936;8.260;2023-03-20T15:02:24;1.92;;;1.02;;
59161;SDS011;44942;48.936;8.260;2023-03-20T15:07:28;1.67;;;0.93;;
59161;SDS011;44942;48.936;8.260;2023-03-20T15:12:33;1.00;;;0.80;;
59161;SDS011;44942;48.936;8.260;2023-03-20T15:17:36;1.05;;;0.90;;
59161;SDS011;44942;48.936;8.260;2023-03-20T15:22:48;1.10;;;0.90;;
59161;SDS011;44942;48.936;8.260;2023-03-20T15:27:50;1.25;;;1.00;;
59161;SDS011;44942;48.936;8.260;2023-03-20T15:32:51;2.10;;;1.63;;
59161;SDS011;44942;48.936;8.260;2023-03-20T15:37:53;2.63;;;1.90;;
59161;SDS011;44942;48.936;8.260;2023-03-20T15:43:30;2.97;;;1.77;;
59161;SDS011;44942;48.936;8.260;2023-03-20T15:48:25;2.13;;;1.75;;
59161;SDS011;44942;48.936;8.260;2023-03-20T15:53:28;2.00;;;1.50;;
59161;SDS011;44942;48.936;8.260;2023-03-20T15:58:31;1.48;;;1.10;;
59161;SDS011;44942;48.936;8.260;2023-03-20T16:03:32;1.60;;;1.35;;
59161;SDS011;44942;48.936;8.260;2023-03-20T16:08:36;1.92;;;1.10;;
59161;SDS011;44942;48.936;8.260;2023-03-20T16:13:39;1.60;;;1.20;;
59161;SDS011;44942;48.936;8.260;2023-03-20T16:18:41;1.23;;;1.13;;
59161;SDS011;44942;48.936;8.260;2023-03-20T16:23:44;1.20;;;1.00;;
59161;SDS011;44942;48.936;8.260;2023-03-20T16:28:52;2.22;;;1.00;;
59161;SDS011;44942;48.936;8.260;2023-03-20T16:34:04;0.98;;;0.90;;
59161;SDS011;44942;48.936;8.260;2023-03-20T16:39:17;1.00;;;0.90;;
59161;SDS011;44942;48.936;8.260;2023-03-20T16:44:20;2.67;;;1.00;;
59161;SDS011;44942;48.936;8.260;2023-03-20T16:55:18;2.47;;;1.08;;
59161;SDS011;44942;48.936;8.260;2023-03-20T17:00:32;1.00;;;0.90;;
59161;SDS011;44942;48.936;8.260;2023-03-20T17:06:05;1.43;;;0.90;;
59161;SDS011;44942;48.936;8.260;2023-03-20T17:11:11;1.20;;;1.10;;
59161;SDS011;44942;48.936;8.260;2023-03-20T17:16:18;1.27;;;1.00;;
59161;SDS011;44942;48.936;8.260;2023-03-20T17:21:20;2.97;;;1.20;;
59161;SDS011;44942;48.936;8.260;2023-03-20T17:26:20;3.80;;;1.10;;
59161;SDS011;44942;48.936;8.260;2023-03-20T17:31:21;2.63;;;1.10;;
59161;SDS011;44942;48.936;8.260;2023-03-20T17:36:23;1.50;;;1.10;;
59161;SDS011;44942;48.936;8.260;2023-03-20T17:41:28;1.30;;;1.05;;
59161;SDS011;44942;48.936;8.260;2023-03-20T17:46:29;3.10;;;1.60;;
59161;SDS011;44942;48.936;8.260;2023-03-20T17:51:30;1.65;;;1.33;;
59161;SDS011;44942;48.936;8.260;2023-03-20T17:56:32;1.98;;;1.38;;
59161;SDS011;44942;48.936;8.260;2023-03-20T18:01:33;1.55;;;1.45;;
59161;SDS011;44942;48.936;8.260;2023-03-20T18:06:33;1.73;;;1.30;;
59161;SDS011;44942;48.936;8.260;2023-03-20T18:11:37;5.03;;;1.70;;
59161;SDS011;44942;48.936;8.260;2023-03-20T18:16:37;4.03;;;1.77;;
59161;SDS011;44942;48.936;8.260;2023-03-20T18:21:38;2.87;;;1.60;;
59161;SDS011;44942;48.936;8.260;2023-03-20T18:26:39;2.17;;;1.70;;
59161;SDS011;44942;48.936;8.260;2023-03-20T18:31:42;2.15;;;1.60;;
59161;SDS011;44942;48.936;8.260;2023-03-20T18:36:43;1.97;;;1.67;;
59161;SDS011;44942;48.936;8.260;2023-03-20T18:41:44;2.17;;;1.65;;
59161;SDS011;44942;48.936;8.260;2023-03-20T18:46:45;3.22;;;1.60;;
59161;SDS011;44942;48.936;8.260;2023-03-20T18:51:46;1.37;;;1.27;;
59161;SDS011;44942;48.936;8.260;2023-03-20T18:56:46;7.77;;;1.90;;
59161;SDS011;44942;48.936;8.260;2023-03-20T19:01:48;7.28;;;1.90;;
59161;SDS011;44942;48.936;8.260;2023-03-20T19:06:50;4.45;;;1.65;;
59161;SDS011;44942;48.936;8.260;2023-03-20T19:11:51;5.95;;;1.80;;
59161;SDS011;44942;48.936;8.260;2023-03-20T19:16:52;1.97;;;1.50;;
59161;SDS011;44942;48.936;8.260;2023-03-20T19:21:53;2.30;;;1.60;;
59161;SDS011;44942;48.936;8.260;2023-03-20T19:26:53;3.43;;;2.80;;
59161;SDS011;44942;48.936;8.260;2023-03-20T19:31:56;6.85;;;5.00;;
59161;SDS011;44942;48.936;8.260;2023-03-20T19:36:58;6.00;;;3.90;;
59161;SDS011;44942;48.936;8.260;2023-03-20T19:41:59;5.03;;;3.97;;
59161;SDS011;44942;48.936;8.260;2023-03-20T19:46:59;4.13;;;3.73;;
59161;SDS011;44942;48.936;8.260;2023-03-20T19:52:00;5.90;;;4.30;;
59161;SDS011;44942;48.936;8.260;2023-03-20T19:57:04;4.57;;;4.10;;
59161;SDS011;44942;48.936;8.260;2023-03-20T20:02:05;5.00;;;4.17;;
59161;SDS011;44942;48.936;8.260;2023-03-20T20:07:05;4.30;;;3.90;;
59161;SDS011;44942;48.936;8.260;2023-03-20T20:12:06;5.10;;;3.47;;
59161;SDS011;44942;48.936;8.260;2023-03-20T20:17:07;5.43;;;4.07;;
59161;SDS011;44942;48.936;8.260;2023-03-20T20:22:08;3.95;;;3.38;;
59161;SDS011;44942;48.936;8.260;2023-03-20T20:27:08;4.07;;;3.50;;
59161;SDS011;44942;48.936;8.260;2023-03-20T20:32:10;3.90;;;3.50;;
59161;SDS011;44942;48.936;8.260;2023-03-20T20:37:11;5.20;;;4.50;;
59161;SDS011;44942;48.936;8.260;2023-03-20T20:42:13;5.10;;;4.60;;
59161;SDS011;44942;48.936;8.260;2023-03-20T20:47:14;6.05;;;5.45;;
59161;SDS011;44942;48.936;8.260;2023-03-20T20:52:15;5.43;;;4.68;;
59161;SDS011;44942;48.936;8.260;2023-03-20T21:02:17;4.30;;;3.90;;
59161;SDS011;44942;48.936;8.260;2023-03-20T21:07:18;7.13;;;4.10;;
59161;SDS011;44942;48.936;8.260;2023-03-20T21:12:19;5.43;;;3.70;;
59161;SDS011;44942;48.936;8.260;2023-03-20T21:17:20;3.97;;;3.53;;
59161;SDS011;44942;48.936;8.260;2023-03-20T21:22:20;4.93;;;3.50;;
59161;SDS011;44942;48.936;8.260;2023-03-20T21:27:21;3.95;;;3.55;;
59161;SDS011;44942;48.936;8.260;2023-03-20T21:32:22;4.23;;;3.67;;
59161;SDS011;44942;48.936;8.260;2023-03-20T21:37:23;5.88;;;4.50;;
59161;SDS011;44942;48.936;8.260;2023-03-20T21:42:24;7.65;;;5.30;;
59161;SDS011;44942;48.936;8.260;2023-03-20T21:47:25;6.85;;;5.65;;
59161;SDS011;44942;48.936;8.260;2023-03-20T21:52:26;7.93;;;6.13;;
59161;SDS011;44942;48.936;8.260;2023-03-20T21:57:27;7.70;;;5.67;;
59161;SDS011;44942;48.936;8.260;2023-03-20T22:02:27;8.10;;;5.97;;
59161;SDS011;44942;48.936;8.260;2023-03-20T22:07:28;5.80;;;5.20;;
59161;SDS011;44942;48.936;8.260;2023-03-20T22:12:29;6.68;;;5.57;;
59161;SDS011;44942;48.936;8.260;2023-03-20T22:17:29;15.87;;;9.87;;
59161;SDS011;44942;48.936;8.260;2023-03-20T22:22:33;11.73;;;8.77;;
59161;SDS011;44942;48.936;8.260;2023-03-20T22:27:33;9.70;;;7.67;;
59161;SDS011;44942;48.936;8.260;2023-03-20T22:32:34;7.77;;;6.60;;
59161;SDS011;44942;48.936;8.260;2023-03-20T22:37:35;7.32;;;6.03;;
59161;SDS011;44942;48.936;8.260;2023-03-20T22:42:36;6.53;;;5.23;;
59161;SDS011;44942;48.936;8.260;2023-03-20T22:47:36;10.40;;;6.30;;
59161;SDS011;44942;48.936;8.260;2023-03-20T22:52:37;8.43;;;5.60;;
59161;SDS011;44942;48.936;8.260;2023-03-20T22:57:38;7.27;;;5.13;;
59161;SDS011;44942;48.936;8.260;2023-03-20T23:02:38;7.63;;;5.10;;
59161;SDS011;44942;48.936;8.260;2023-03-20T23:07:39;13.10;;;5.70;;
59161;SDS011;44942;48.936;8.260;2023-03-20T23:12:40;13.17;;;6.87;;
59161;SDS011;44942;48.936;8.260;2023-03-20T23:17:41;12.73;;;6.63;;
59161;SDS011;44942;48.936;8.260;2023-03-20T23:22:41;15.10;;;7.93;;
59161;SDS011;44942;48.936;8.260;2023-03-20T23:27:42;9.93;;;5.73;;
59161;SDS011;44942;48.936;8.260;2023-03-20T23:32:42;10.07;;;5.40;;
59161;SDS011;44942;48.936;8.260;2023-03-20T23:37:43;7.70;;;5.18;;
59161;SDS011;44942;48.936;8.260;2023-03-20T23:42:43;9.33;;;5.20;;
59161;SDS011;44942;48.936;8.260;2023-03-20T23:47:44;7.80;;;4.63;;
59161;SDS011;44942;48.936;8.260;2023-03-20T23:52:45;8.53;;;4.63;;
59161;SDS011;44942;48.936;8.260;2023-03-20T23:57:46;6.53;;;4.30;;
